createdAt,value
2023-03-17T00:04:54.248Z,53.36
2023-03-17T00:09:56.491Z,53.20
2023-03-17T00:14:58.682Z,53.18
2023-03-17T00:20:00.619Z,52.93
2023-03-17T00:25:02.752Z,52.73
2023-03-17T00:30:05.699Z,52.98
2023-03-17T00:35:29.019Z,52.42
2023-03-17T00:40:31.827Z,52.71
2023-03-17T00:45:34.475Z,52.69
2023-03-17T00:50:36.574Z,52.60
2023-03-17T00:55:39.089Z,52.45
2023-03-17T01:00:41.129Z,52.22
2023-03-17T01:05:44.121Z,52.35
2023-03-17T01:10:50.090Z,52.28
2023-03-17T01:15:56.090Z,52.16
2023-03-17T01:20:59.180Z,52.09
2023-03-17T01:26:01.837Z,51.93
2023-03-17T01:31:04.055Z,51.79
2023-03-17T01:36:06.354Z,51.28
2023-03-17T01:41:08.246Z,51.30
2023-03-17T01:46:21.225Z,51.03
2023-03-17T01:51:27.997Z,50.65
2023-03-17T01:56:30.326Z,50.54
2023-03-17T02:01:39.105Z,50.49
2023-03-17T02:06:55.119Z,50.64
2023-03-17T02:12:01.804Z,50.14
2023-03-17T02:17:04.045Z,50.19
2023-03-17T02:22:06.414Z,50.08
2023-03-17T02:27:17.898Z,49.85
2023-03-17T02:32:20.814Z,49.71
2023-03-17T02:37:25.722Z,49.25
2023-03-17T02:42:28.608Z,48.90
2023-03-17T02:47:33.945Z,48.72
2023-03-17T02:52:36.558Z,48.52
2023-03-17T02:57:38.560Z,48.62
2023-03-17T03:02:41.709Z,48.67
2023-03-17T03:07:43.668Z,48.47
2023-03-17T03:12:46.520Z,48.59
2023-03-17T03:17:48.314Z,48.45
2023-03-17T03:22:50.828Z,48.53
2023-03-17T03:27:52.869Z,48.49
2023-03-17T03:32:57.962Z,48.26
2023-03-17T03:38:00.571Z,48.34
2023-03-17T03:43:16.123Z,48.29
2023-03-17T03:48:24.200Z,48.29
2023-03-17T03:53:26.808Z,48.23
2023-03-17T03:58:28.916Z,48.14
2023-03-17T04:03:31.028Z,47.88
2023-03-17T04:08:33.285Z,48.12
2023-03-17T04:13:35.388Z,48.31
2023-03-17T04:18:37.454Z,48.28
2023-03-17T04:23:39.644Z,48.26
2023-03-17T04:28:41.523Z,48.23
2023-03-17T04:33:44.627Z,48.11
2023-03-17T04:38:46.710Z,48.33
2023-03-17T04:43:48.600Z,48.39
2023-03-17T04:48:50.410Z,48.38
2023-03-17T04:53:52.679Z,48.58
2023-03-17T04:58:54.917Z,48.61
2023-03-17T05:03:57.205Z,48.50
2023-03-17T05:08:59.079Z,48.75
2023-03-17T05:14:01.204Z,48.89
2023-03-17T05:19:03.933Z,49.06
2023-03-17T05:24:06.615Z,49.06
2023-03-17T05:29:09.394Z,49.20
2023-03-17T05:34:11.563Z,49.32
2023-03-17T05:39:14.663Z,49.58
2023-03-17T05:44:16.694Z,49.85
2023-03-17T05:49:19.182Z,49.82
2023-03-17T05:54:22.327Z,49.98
2023-03-17T05:59:24.318Z,50.31
2023-03-17T06:04:33.074Z,49.96
2023-03-17T06:09:35.285Z,50.04
2023-03-17T06:14:37.044Z,50.41
2023-03-17T06:19:38.985Z,50.51
2023-03-17T06:24:40.841Z,50.42
2023-03-17T06:29:42.735Z,50.68
2023-03-17T06:34:44.856Z,50.55
2023-03-17T06:39:48.251Z,50.54
2023-03-17T06:44:52.588Z,50.80
2023-03-17T06:49:54.436Z,50.89
2023-03-17T06:54:56.261Z,50.79
2023-03-17T06:59:58.068Z,50.81
2023-03-17T07:05:00.863Z,50.65
2023-03-17T07:10:03.754Z,50.45
2023-03-17T07:15:06.071Z,50.11
2023-03-17T07:20:09.918Z,50.04
2023-03-17T07:25:11.981Z,49.61
2023-03-17T07:30:19.607Z,49.52
2023-03-17T07:35:22.554Z,49.26
2023-03-17T07:40:27.262Z,49.21
2023-03-17T07:45:30.443Z,49.22
2023-03-17T07:50:35.822Z,49.19
2023-03-17T07:55:39.373Z,48.79
2023-03-17T08:00:41.280Z,48.78
2023-03-17T08:05:44.602Z,49.00
2023-03-17T08:10:46.878Z,48.81
2023-03-17T08:15:49.055Z,48.64
2023-03-17T08:20:51.467Z,48.37
2023-03-17T08:26:01.919Z,48.07
2023-03-17T08:31:13.815Z,48.05
2023-03-17T08:36:17.064Z,47.88
2023-03-17T08:41:22.920Z,47.87
2023-03-17T08:46:28.273Z,48.10
2023-03-17T08:51:34.781Z,47.92
2023-03-17T08:56:37.732Z,47.93
2023-03-17T09:01:41.638Z,47.86
2023-03-17T09:07:01.758Z,47.35
2023-03-17T09:12:06.980Z,47.39
2023-03-17T09:17:09.851Z,47.36
2023-03-17T09:22:17.802Z,46.76
2023-03-17T09:27:19.942Z,46.17
2023-03-17T09:32:22.765Z,46.10
2023-03-17T09:37:24.822Z,45.86
2023-03-17T09:42:49.842Z,45.75
2023-03-17T09:48:21.721Z,45.29
2023-03-17T09:53:34.367Z,45.49
2023-03-17T09:58:38.443Z,45.19
2023-03-17T10:03:40.563Z,45.07
2023-03-17T10:08:51.575Z,45.00
2023-03-17T10:14:28.861Z,44.68
2023-03-17T10:19:30.775Z,44.75
2023-03-17T10:24:34.438Z,44.53
2023-03-17T10:29:36.377Z,44.52
2023-03-17T10:34:39.661Z,43.99
2023-03-17T10:39:49.193Z,43.76
2023-03-17T10:45:32.555Z,43.05
2023-03-17T10:50:37.934Z,43.23
2023-03-17T10:55:49.960Z,42.80
2023-03-17T11:00:58.320Z,42.99
2023-03-17T11:06:04.182Z,42.84
2023-03-17T11:11:10.415Z,42.61
2023-03-17T11:16:24.294Z,42.60
2023-03-17T11:21:32.413Z,42.63
2023-03-17T11:27:00.427Z,42.55
2023-03-17T11:32:02.478Z,42.98
2023-03-17T11:37:22.243Z,42.69
2023-03-17T11:42:30.076Z,42.69
2023-03-17T11:47:49.981Z,42.69
2023-03-17T11:53:36.992Z,42.64
2023-03-17T11:58:46.592Z,42.70
2023-03-17T12:03:57.812Z,42.83
2023-03-17T12:09:16.540Z,42.77
2023-03-17T12:14:28.745Z,42.39
2023-03-17T12:19:54.082Z,41.58
2023-03-17T12:25:21.180Z,41.24
2023-03-17T12:30:52.294Z,41.35
2023-03-17T12:35:54.396Z,41.75
2023-03-17T12:41:26.747Z,41.98
2023-03-17T12:46:34.676Z,42.29
2023-03-17T12:51:40.055Z,42.20
2023-03-17T12:56:47.404Z,41.75
2023-03-17T13:02:15.571Z,41.49
2023-03-17T13:07:27.059Z,41.75
2023-03-17T13:12:44.782Z,41.76
2023-03-17T13:17:46.962Z,42.07
2023-03-17T13:23:13.940Z,41.84
2023-03-17T13:28:24.585Z,42.05
2023-03-17T13:33:33.200Z,41.93
2023-03-17T13:38:35.079Z,42.32
2023-03-17T13:43:58.417Z,42.14
2023-03-17T13:49:18.755Z,42.31
2023-03-17T13:54:26.755Z,42.59
2023-03-17T14:00:05.659Z,42.53
2023-03-17T14:05:17.553Z,42.77
2023-03-17T14:10:23.963Z,42.87
2023-03-17T14:15:48.119Z,42.36
2023-03-17T14:20:55.212Z,42.77
2023-03-17T14:25:59.505Z,42.80
2023-03-17T14:31:07.343Z,42.52
2023-03-17T14:36:14.249Z,42.78
2023-03-17T14:41:22.707Z,42.79
2023-03-17T14:46:32.310Z,42.80
2023-03-17T14:51:36.754Z,42.92
2023-03-17T14:56:43.051Z,42.88
2023-03-17T15:01:49.630Z,42.71
2023-03-17T15:06:54.347Z,42.82
2023-03-17T15:12:18.241Z,42.94
2023-03-17T15:17:28.484Z,42.73
2023-03-17T15:22:32.926Z,42.74
2023-03-17T15:27:34.721Z,42.84
2023-03-17T15:32:36.671Z,43.28
2023-03-17T15:37:38.628Z,43.41
2023-03-17T15:42:40.543Z,43.80
2023-03-17T15:47:44.122Z,43.86
2023-03-17T15:52:46.092Z,43.99
2023-03-17T15:57:54.748Z,44.22
2023-03-17T16:03:02.837Z,44.38
2023-03-17T16:08:04.870Z,44.31
2023-03-17T16:13:06.846Z,44.49
2023-03-17T16:18:19.153Z,44.78
2023-03-17T16:23:27.646Z,44.72
2023-03-17T16:28:32.160Z,44.89
2023-03-17T16:33:39.718Z,45.21
2023-03-17T16:38:44.949Z,45.19
2023-03-17T16:43:54.111Z,45.36
2023-03-17T16:48:56.292Z,45.18
2023-03-17T16:53:58.446Z,45.49
2023-03-17T16:59:01.088Z,45.25
2023-03-17T17:04:03.240Z,45.58
2023-03-17T17:09:05.553Z,45.79
2023-03-17T17:14:07.344Z,45.91
2023-03-17T17:19:17.587Z,46.12
2023-03-17T17:24:19.674Z,46.31
2023-03-17T17:29:21.557Z,46.28
2023-03-17T17:34:23.776Z,46.60
2023-03-17T17:39:25.954Z,46.56
2023-03-17T17:44:27.810Z,46.79
2023-03-17T17:49:29.688Z,46.95
2023-03-17T17:54:33.877Z,47.02
2023-03-17T17:59:35.699Z,47.15
2023-03-17T18:04:37.701Z,47.00
2023-03-17T18:09:39.963Z,47.12
2023-03-17T18:14:42.054Z,47.11
2023-03-17T18:19:44.187Z,47.10
2023-03-17T18:24:48.697Z,47.25
2023-03-17T18:29:50.749Z,47.14
2023-03-17T18:34:52.880Z,47.19
2023-03-17T18:40:11.975Z,47.31
2023-03-17T18:45:16.096Z,47.31
2023-03-17T18:50:18.633Z,47.23
2023-03-17T18:55:21.018Z,47.40
2023-03-17T19:00:25.368Z,47.10
2023-03-17T19:05:27.952Z,46.85
2023-03-17T19:10:30.460Z,46.86
2023-03-17T19:15:32.719Z,46.79
2023-03-17T19:20:36.263Z,46.73
2023-03-17T19:25:38.087Z,46.72
2023-03-17T19:30:40.003Z,46.57
2023-03-17T19:35:44.377Z,46.49
2023-03-17T19:40:46.538Z,46.42
2023-03-17T19:45:48.670Z,46.40
2023-03-17T19:50:51.028Z,46.23
2023-03-17T19:55:52.864Z,46.14
2023-03-17T20:00:54.877Z,45.97
2023-03-17T20:05:56.770Z,46.04
2023-03-17T20:11:01.538Z,45.86
2023-03-17T20:16:04.695Z,46.16
2023-03-17T20:21:12.434Z,45.98
2023-03-17T20:26:14.339Z,45.85
2023-03-17T20:31:16.358Z,46.01
2023-03-17T20:36:18.319Z,45.52
2023-03-17T20:41:21.093Z,45.44
2023-03-17T20:46:24.785Z,45.50
2023-03-17T20:51:27.058Z,45.36
2023-03-17T20:56:30.046Z,45.16
2023-03-17T21:01:36.356Z,45.06
2023-03-17T21:06:38.833Z,45.02
2023-03-17T21:11:41.113Z,45.04
2023-03-17T21:16:44.938Z,45.10
2023-03-17T21:21:46.896Z,44.96
2023-03-17T21:26:48.925Z,45.12
2023-03-17T21:31:51.021Z,45.01
2023-03-17T21:36:53.810Z,44.66
2023-03-17T21:41:56.339Z,44.77
2023-03-17T21:46:58.447Z,44.73
2023-03-17T21:52:00.320Z,44.71
2023-03-17T21:57:02.124Z,44.63
2023-03-17T22:02:04.057Z,44.69
2023-03-17T22:07:06.060Z,44.43
2023-03-17T22:12:08.680Z,44.68
2023-03-17T22:17:10.789Z,44.41
2023-03-17T22:22:12.778Z,44.36
2023-03-17T22:27:15.857Z,44.11
2023-03-17T22:32:17.750Z,44.12
2023-03-17T22:37:22.253Z,44.06
2023-03-17T22:42:24.140Z,43.77
2023-03-17T22:47:26.906Z,43.77
2023-03-17T22:52:29.026Z,43.70
2023-03-17T22:57:31.180Z,43.89
2023-03-17T23:02:33.045Z,43.74
2023-03-17T23:07:49.481Z,43.77
2023-03-17T23:12:52.452Z,43.80
2023-03-17T23:17:54.379Z,43.63
2023-03-17T23:22:56.549Z,43.49
2023-03-17T23:27:58.382Z,43.84
2023-03-17T23:33:01.281Z,43.90
2023-03-17T23:38:04.284Z,43.70
2023-03-17T23:43:06.703Z,43.79
2023-03-17T23:48:10.167Z,43.84
2023-03-17T23:53:12.288Z,43.88
2023-03-17T23:58:17.835Z,43.81
